sensor_id;sensor_type;location;lat;lon;timestamp;P1;durP1;ratioP1;P2;durP2;ratioP2
4638;SDS011;2332;38.646;-9.154;2022-08-30T00:02:34;9.90;;;7.20;;
4638;SDS011;2332;38.646;-9.154;2022-08-30T00:05:00;15.03;;;7.43;;
4638;SDS011;2332;38.646;-9.154;2022-08-30T00:07:26;18.20;;;7.83;;
4638;SDS011;2332;38.646;-9.154;2022-08-30T00:09:52;13.43;;;7.10;;
4638;SDS011;2332;38.646;-9.154;2022-08-30T00:12:18;15.00;;;7.07;;
4638;SDS011;2332;38.646;-9.154;2022-08-30T00:14:45;14.87;;;7.40;;
4638;SDS011;2332;38.646;-9.154;2022-08-30T00:17:11;12.47;;;7.63;;
4638;SDS011;2332;38.646;-9.154;2022-08-30T00:19:37;15.93;;;6.70;;
4638;SDS011;2332;38.646;-9.154;2022-08-30T00:22:05;10.80;;;7.10;;
4638;SDS011;2332;38.646;-9.154;2022-08-30T00:24:31;16.57;;;7.83;;
4638;SDS011;2332;38.646;-9.154;2022-08-30T00:26:57;15.67;;;7.90;;
4638;SDS011;2332;38.646;-9.154;2022-08-30T00:29:22;15.80;;;7.73;;
4638;SDS011;2332;38.646;-9.154;2022-08-30T00:31:48;12.57;;;7.87;;
4638;SDS011;2332;38.646;-9.154;2022-08-30T00:34:14;17.13;;;8.07;;
4638;SDS011;2332;38.646;-9.154;2022-08-30T00:36:41;11.00;;;8.13;;
4638;SDS011;2332;38.646;-9.154;2022-08-30T00:39:07;13.23;;;7.50;;
4638;SDS011;2332;38.646;-9.154;2022-08-30T00:41:33;14.27;;;7.67;;
4638;SDS011;2332;38.646;-9.154;2022-08-30T00:43:59;19.70;;;8.40;;
4638;SDS011;2332;38.646;-9.154;2022-08-30T00:46:25;19.70;;;8.33;;
4638;SDS011;2332;38.646;-9.154;2022-08-30T00:48:51;13.70;;;7.60;;
4638;SDS011;2332;38.646;-9.154;2022-08-30T00:51:17;11.90;;;7.00;;
4638;SDS011;2332;38.646;-9.154;2022-08-30T00:53:49;14.83;;;7.37;;
4638;SDS011;2332;38.646;-9.154;2022-08-30T00:56:19;16.13;;;8.30;;
4638;SDS011;2332;38.646;-9.154;2022-08-30T00:58:46;15.67;;;8.57;;
4638;SDS011;2332;38.646;-9.154;2022-08-30T01:01:13;15.60;;;7.70;;
4638;SDS011;2332;38.646;-9.154;2022-08-30T01:03:39;11.27;;;8.50;;
4638;SDS011;2332;38.646;-9.154;2022-08-30T01:06:05;17.30;;;8.57;;
4638;SDS011;2332;38.646;-9.154;2022-08-30T01:08:31;22.40;;;9.13;;
4638;SDS011;2332;38.646;-9.154;2022-08-30T01:11:00;21.20;;;8.17;;
4638;SDS011;2332;38.646;-9.154;2022-08-30T01:13:27;20.83;;;8.33;;
4638;SDS011;2332;38.646;-9.154;2022-08-30T01:15:53;16.10;;;7.50;;
4638;SDS011;2332;38.646;-9.154;2022-08-30T01:18:19;16.30;;;8.67;;
4638;SDS011;2332;38.646;-9.154;2022-08-30T01:21:02;21.77;;;8.23;;
4638;SDS011;2332;38.646;-9.154;2022-08-30T01:23:30;21.97;;;8.27;;
4638;SDS011;2332;38.646;-9.154;2022-08-30T01:25:56;26.70;;;8.43;;
4638;SDS011;2332;38.646;-9.154;2022-08-30T01:28:23;22.63;;;8.30;;
4638;SDS011;2332;38.646;-9.154;2022-08-30T01:30:50;18.10;;;8.60;;
4638;SDS011;2332;38.646;-9.154;2022-08-30T01:33:17;20.20;;;7.40;;
4638;SDS011;2332;38.646;-9.154;2022-08-30T01:38:13;17.13;;;8.37;;
4638;SDS011;2332;38.646;-9.154;2022-08-30T01:40:41;17.57;;;8.50;;
4638;SDS011;2332;38.646;-9.154;2022-08-30T01:43:07;18.53;;;7.73;;
4638;SDS011;2332;38.646;-9.154;2022-08-30T01:45:33;19.60;;;8.10;;
4638;SDS011;2332;38.646;-9.154;2022-08-30T01:47:59;24.10;;;8.43;;
4638;SDS011;2332;38.646;-9.154;2022-08-30T01:50:24;15.13;;;7.90;;
4638;SDS011;2332;38.646;-9.154;2022-08-30T01:52:50;18.40;;;7.80;;
4638;SDS011;2332;38.646;-9.154;2022-08-30T01:55:16;15.80;;;8.40;;
4638;SDS011;2332;38.646;-9.154;2022-08-30T01:57:41;14.03;;;8.20;;
4638;SDS011;2332;38.646;-9.154;2022-08-30T02:00:08;13.10;;;8.37;;
4638;SDS011;2332;38.646;-9.154;2022-08-30T02:02:34;14.33;;;7.97;;
4638;SDS011;2332;38.646;-9.154;2022-08-30T02:05:00;13.03;;;7.97;;
4638;SDS011;2332;38.646;-9.154;2022-08-30T02:07:26;13.73;;;7.60;;
4638;SDS011;2332;38.646;-9.154;2022-08-30T02:09:51;21.87;;;8.13;;
4638;SDS011;2332;38.646;-9.154;2022-08-30T02:12:18;17.63;;;8.50;;
4638;SDS011;2332;38.646;-9.154;2022-08-30T02:14:43;13.80;;;9.00;;
4638;SDS011;2332;38.646;-9.154;2022-08-30T02:17:09;18.97;;;8.03;;
4638;SDS011;2332;38.646;-9.154;2022-08-30T02:19:37;18.23;;;8.93;;
4638;SDS011;2332;38.646;-9.154;2022-08-30T02:22:03;19.30;;;8.20;;
4638;SDS011;2332;38.646;-9.154;2022-08-30T02:24:29;18.90;;;9.47;;
4638;SDS011;2332;38.646;-9.154;2022-08-30T02:26:54;25.90;;;9.43;;
4638;SDS011;2332;38.646;-9.154;2022-08-30T02:29:21;18.90;;;9.07;;
4638;SDS011;2332;38.646;-9.154;2022-08-30T02:31:49;22.87;;;9.37;;
4638;SDS011;2332;38.646;-9.154;2022-08-30T02:34:15;20.57;;;9.40;;
4638;SDS011;2332;38.646;-9.154;2022-08-30T02:36:42;21.43;;;9.77;;
4638;SDS011;2332;38.646;-9.154;2022-08-30T02:39:09;14.73;;;7.90;;
4638;SDS011;2332;38.646;-9.154;2022-08-30T02:41:35;21.77;;;8.87;;
4638;SDS011;2332;38.646;-9.154;2022-08-30T02:44:02;15.83;;;8.70;;
4638;SDS011;2332;38.646;-9.154;2022-08-30T02:46:29;11.60;;;8.23;;
4638;SDS011;2332;38.646;-9.154;2022-08-30T02:48:55;16.07;;;8.27;;
4638;SDS011;2332;38.646;-9.154;2022-08-30T02:51:20;10.77;;;8.20;;
4638;SDS011;2332;38.646;-9.154;2022-08-30T02:53:46;21.17;;;9.07;;
4638;SDS011;2332;38.646;-9.154;2022-08-30T02:56:12;19.20;;;9.50;;
4638;SDS011;2332;38.646;-9.154;2022-08-30T02:58:38;17.57;;;8.97;;
4638;SDS011;2332;38.646;-9.154;2022-08-30T03:01:07;19.40;;;9.90;;
4638;SDS011;2332;38.646;-9.154;2022-08-30T03:03:33;19.40;;;9.30;;
4638;SDS011;2332;38.646;-9.154;2022-08-30T03:05:59;19.03;;;9.47;;
4638;SDS011;2332;38.646;-9.154;2022-08-30T03:08:27;16.07;;;9.70;;
4638;SDS011;2332;38.646;-9.154;2022-08-30T03:10:53;21.20;;;9.20;;
4638;SDS011;2332;38.646;-9.154;2022-08-30T03:13:21;17.33;;;8.83;;
4638;SDS011;2332;38.646;-9.154;2022-08-30T03:15:47;16.17;;;9.33;;
4638;SDS011;2332;38.646;-9.154;2022-08-30T03:18:14;19.40;;;9.47;;
4638;SDS011;2332;38.646;-9.154;2022-08-30T03:20:41;18.30;;;9.20;;
4638;SDS011;2332;38.646;-9.154;2022-08-30T03:23:06;17.20;;;10.33;;
4638;SDS011;2332;38.646;-9.154;2022-08-30T03:25:32;20.00;;;9.57;;
4638;SDS011;2332;38.646;-9.154;2022-08-30T03:27:58;14.70;;;8.80;;
4638;SDS011;2332;38.646;-9.154;2022-08-30T03:30:24;21.57;;;9.50;;
4638;SDS011;2332;38.646;-9.154;2022-08-30T03:32:50;19.17;;;9.13;;
4638;SDS011;2332;38.646;-9.154;2022-08-30T03:35:15;15.93;;;9.57;;
4638;SDS011;2332;38.646;-9.154;2022-08-30T03:37:42;18.23;;;9.50;;
4638;SDS011;2332;38.646;-9.154;2022-08-30T03:40:08;18.10;;;9.57;;
4638;SDS011;2332;38.646;-9.154;2022-08-30T03:42:35;20.97;;;10.40;;
4638;SDS011;2332;38.646;-9.154;2022-08-30T03:45:01;18.17;;;9.90;;
4638;SDS011;2332;38.646;-9.154;2022-08-30T03:47:28;19.97;;;9.90;;
4638;SDS011;2332;38.646;-9.154;2022-08-30T03:49:54;19.10;;;9.37;;
4638;SDS011;2332;38.646;-9.154;2022-08-30T03:52:19;26.07;;;9.70;;
4638;SDS011;2332;38.646;-9.154;2022-08-30T03:54:45;26.37;;;10.80;;
4638;SDS011;2332;38.646;-9.154;2022-08-30T03:57:11;19.80;;;9.67;;
4638;SDS011;2332;38.646;-9.154;2022-08-30T03:59:37;18.20;;;9.57;;
4638;SDS011;2332;38.646;-9.154;2022-08-30T04:02:02;20.70;;;10.40;;
4638;SDS011;2332;38.646;-9.154;2022-08-30T04:04:29;16.13;;;9.30;;
4638;SDS011;2332;38.646;-9.154;2022-08-30T04:06:54;18.80;;;11.13;;
4638;SDS011;2332;38.646;-9.154;2022-08-30T04:09:20;23.57;;;10.43;;
4638;SDS011;2332;38.646;-9.154;2022-08-30T04:11:46;19.30;;;9.83;;
4638;SDS011;2332;38.646;-9.154;2022-08-30T04:14:11;15.20;;;10.20;;
4638;SDS011;2332;38.646;-9.154;2022-08-30T04:16:38;22.80;;;9.80;;
4638;SDS011;2332;38.646;-9.154;2022-08-30T04:19:03;17.67;;;10.10;;
4638;SDS011;2332;38.646;-9.154;2022-08-30T04:21:29;23.30;;;9.70;;
4638;SDS011;2332;38.646;-9.154;2022-08-30T04:23:55;16.50;;;10.90;;
4638;SDS011;2332;38.646;-9.154;2022-08-30T04:26:20;22.10;;;10.20;;
4638;SDS011;2332;38.646;-9.154;2022-08-30T04:28:46;29.27;;;11.20;;
4638;SDS011;2332;38.646;-9.154;2022-08-30T04:31:15;21.77;;;9.73;;
4638;SDS011;2332;38.646;-9.154;2022-08-30T04:33:41;16.23;;;9.73;;
4638;SDS011;2332;38.646;-9.154;2022-08-30T04:36:07;20.90;;;9.70;;
4638;SDS011;2332;38.646;-9.154;2022-08-30T04:38:34;33.90;;;10.43;;
4638;SDS011;2332;38.646;-9.154;2022-08-30T04:41:01;26.87;;;10.60;;
4638;SDS011;2332;38.646;-9.154;2022-08-30T04:43:27;23.60;;;10.27;;
4638;SDS011;2332;38.646;-9.154;2022-08-30T04:45:53;14.77;;;9.73;;
4638;SDS011;2332;38.646;-9.154;2022-08-30T04:48:20;19.80;;;10.50;;
4638;SDS011;2332;38.646;-9.154;2022-08-30T04:50:49;25.43;;;10.83;;
4638;SDS011;2332;38.646;-9.154;2022-08-30T04:53:14;17.37;;;9.47;;
4638;SDS011;2332;38.646;-9.154;2022-08-30T04:55:41;25.90;;;9.93;;
4638;SDS011;2332;38.646;-9.154;2022-08-30T04:58:07;25.07;;;10.47;;
4638;SDS011;2332;38.646;-9.154;2022-08-30T05:00:34;18.17;;;9.83;;
4638;SDS011;2332;38.646;-9.154;2022-08-30T05:03:01;17.63;;;9.17;;
4638;SDS011;2332;38.646;-9.154;2022-08-30T05:05:27;20.80;;;9.73;;
4638;SDS011;2332;38.646;-9.154;2022-08-30T05:08:09;18.10;;;9.60;;
4638;SDS011;2332;38.646;-9.154;2022-08-30T05:10:40;23.87;;;9.40;;
4638;SDS011;2332;38.646;-9.154;2022-08-30T05:13:07;20.53;;;10.27;;
4638;SDS011;2332;38.646;-9.154;2022-08-30T05:15:34;24.37;;;10.40;;
4638;SDS011;2332;38.646;-9.154;2022-08-30T05:18:00;21.00;;;9.53;;
4638;SDS011;2332;38.646;-9.154;2022-08-30T05:20:26;12.70;;;9.27;;
4638;SDS011;2332;38.646;-9.154;2022-08-30T05:22:51;22.30;;;10.70;;
4638;SDS011;2332;38.646;-9.154;2022-08-30T05:25:27;14.40;;;9.80;;
4638;SDS011;2332;38.646;-9.154;2022-08-30T05:27:54;22.27;;;11.27;;
4638;SDS011;2332;38.646;-9.154;2022-08-30T05:30:21;21.13;;;9.70;;
4638;SDS011;2332;38.646;-9.154;2022-08-30T05:32:48;18.90;;;9.03;;
4638;SDS011;2332;38.646;-9.154;2022-08-30T05:35:14;17.50;;;9.40;;
4638;SDS011;2332;38.646;-9.154;2022-08-30T05:37:40;21.97;;;10.33;;
4638;SDS011;2332;38.646;-9.154;2022-08-30T05:40:06;17.13;;;9.20;;
4638;SDS011;2332;38.646;-9.154;2022-08-30T05:42:33;18.50;;;10.37;;
4638;SDS011;2332;38.646;-9.154;2022-08-30T05:45:00;22.40;;;9.53;;
4638;SDS011;2332;38.646;-9.154;2022-08-30T05:47:26;21.83;;;10.13;;
4638;SDS011;2332;38.646;-9.154;2022-08-30T05:49:54;19.03;;;9.50;;
4638;SDS011;2332;38.646;-9.154;2022-08-30T05:52:19;12.07;;;8.73;;
4638;SDS011;2332;38.646;-9.154;2022-08-30T05:54:49;12.87;;;8.33;;
4638;SDS011;2332;38.646;-9.154;2022-08-30T05:57:17;14.47;;;9.17;;
4638;SDS011;2332;38.646;-9.154;2022-08-30T05:59:42;17.10;;;9.27;;
4638;SDS011;2332;38.646;-9.154;2022-08-30T06:02:08;17.67;;;8.87;;
4638;SDS011;2332;38.646;-9.154;2022-08-30T06:04:34;17.47;;;8.93;;
4638;SDS011;2332;38.646;-9.154;2022-08-30T06:07:01;22.00;;;9.00;;
4638;SDS011;2332;38.646;-9.154;2022-08-30T06:09:27;16.33;;;8.90;;
4638;SDS011;2332;38.646;-9.154;2022-08-30T06:11:52;22.17;;;8.67;;
4638;SDS011;2332;38.646;-9.154;2022-08-30T06:14:19;17.07;;;8.87;;
4638;SDS011;2332;38.646;-9.154;2022-08-30T06:16:44;17.43;;;8.60;;
4638;SDS011;2332;38.646;-9.154;2022-08-30T06:19:11;19.93;;;8.70;;
4638;SDS011;2332;38.646;-9.154;2022-08-30T06:21:38;13.90;;;8.37;;
4638;SDS011;2332;38.646;-9.154;2022-08-30T06:24:05;18.20;;;9.33;;
4638;SDS011;2332;38.646;-9.154;2022-08-30T06:26:35;15.20;;;8.57;;
4638;SDS011;2332;38.646;-9.154;2022-08-30T06:29:02;11.97;;;8.33;;
4638;SDS011;2332;38.646;-9.154;2022-08-30T06:31:28;15.93;;;7.37;;
4638;SDS011;2332;38.646;-9.154;2022-08-30T06:33:53;13.50;;;7.97;;
4638;SDS011;2332;38.646;-9.154;2022-08-30T06:36:23;12.33;;;7.30;;
4638;SDS011;2332;38.646;-9.154;2022-08-30T06:38:50;11.47;;;7.20;;
4638;SDS011;2332;38.646;-9.154;2022-08-30T06:41:19;15.30;;;7.53;;
4638;SDS011;2332;38.646;-9.154;2022-08-30T06:43:46;17.70;;;7.40;;
4638;SDS011;2332;38.646;-9.154;2022-08-30T06:46:14;22.87;;;9.10;;
4638;SDS011;2332;38.646;-9.154;2022-08-30T06:48:46;42.97;;;10.10;;
4638;SDS011;2332;38.646;-9.154;2022-08-30T06:51:12;20.73;;;8.27;;
4638;SDS011;2332;38.646;-9.154;2022-08-30T06:53:38;16.13;;;7.27;;
4638;SDS011;2332;38.646;-9.154;2022-08-30T06:56:05;22.17;;;7.87;;
4638;SDS011;2332;38.646;-9.154;2022-08-30T06:58:33;18.40;;;7.80;;
4638;SDS011;2332;38.646;-9.154;2022-08-30T07:00:59;15.23;;;7.47;;
4638;SDS011;2332;38.646;-9.154;2022-08-30T07:03:25;12.33;;;7.03;;
4638;SDS011;2332;38.646;-9.154;2022-08-30T07:05:54;15.70;;;7.20;;
4638;SDS011;2332;38.646;-9.154;2022-08-30T07:08:20;11.60;;;6.27;;
4638;SDS011;2332;38.646;-9.154;2022-08-30T07:10:47;15.00;;;6.00;;
4638;SDS011;2332;38.646;-9.154;2022-08-30T07:13:13;14.63;;;6.87;;
4638;SDS011;2332;38.646;-9.154;2022-08-30T07:15:40;9.03;;;6.47;;
4638;SDS011;2332;38.646;-9.154;2022-08-30T07:18:08;9.40;;;6.17;;
4638;SDS011;2332;38.646;-9.154;2022-08-30T07:20:53;11.00;;;6.70;;
4638;SDS011;2332;38.646;-9.154;2022-08-30T07:23:19;15.53;;;6.37;;
4638;SDS011;2332;38.646;-9.154;2022-08-30T07:25:44;13.10;;;6.13;;
4638;SDS011;2332;38.646;-9.154;2022-08-30T07:28:10;9.90;;;5.60;;
4638;SDS011;2332;38.646;-9.154;2022-08-30T07:30:36;21.43;;;6.50;;
4638;SDS011;2332;38.646;-9.154;2022-08-30T07:33:02;9.97;;;5.80;;
4638;SDS011;2332;38.646;-9.154;2022-08-30T07:35:31;7.80;;;5.30;;
4638;SDS011;2332;38.646;-9.154;2022-08-30T07:37:57;9.50;;;6.00;;
4638;SDS011;2332;38.646;-9.154;2022-08-30T07:40:22;15.10;;;4.90;;
4638;SDS011;2332;38.646;-9.154;2022-08-30T07:42:48;16.43;;;6.33;;
4638;SDS011;2332;38.646;-9.154;2022-08-30T07:45:14;5.80;;;4.90;;
4638;SDS011;2332;38.646;-9.154;2022-08-30T07:47:40;13.40;;;5.70;;
4638;SDS011;2332;38.646;-9.154;2022-08-30T07:50:06;16.90;;;5.40;;
4638;SDS011;2332;38.646;-9.154;2022-08-30T07:52:32;9.70;;;5.30;;
4638;SDS011;2332;38.646;-9.154;2022-08-30T07:54:58;11.23;;;5.27;;
4638;SDS011;2332;38.646;-9.154;2022-08-30T07:57:24;7.30;;;5.10;;
4638;SDS011;2332;38.646;-9.154;2022-08-30T07:59:50;9.40;;;4.40;;
4638;SDS011;2332;38.646;-9.154;2022-08-30T08:02:16;7.80;;;4.70;;
4638;SDS011;2332;38.646;-9.154;2022-08-30T08:04:43;8.13;;;4.90;;
4638;SDS011;2332;38.646;-9.154;2022-08-30T08:07:08;408.43;;;28.37;;
4638;SDS011;2332;38.646;-9.154;2022-08-30T08:09:35;8.63;;;4.20;;
4638;SDS011;2332;38.646;-9.154;2022-08-30T08:12:05;6.60;;;4.27;;
4638;SDS011;2332;38.646;-9.154;2022-08-30T08:14:32;10.30;;;4.60;;
4638;SDS011;2332;38.646;-9.154;2022-08-30T08:16:58;16.40;;;4.93;;
4638;SDS011;2332;38.646;-9.154;2022-08-30T08:19:24;10.80;;;4.90;;
4638;SDS011;2332;38.646;-9.154;2022-08-30T08:21:50;17.83;;;5.17;;
4638;SDS011;2332;38.646;-9.154;2022-08-30T08:24:21;9.10;;;4.00;;
4638;SDS011;2332;38.646;-9.154;2022-08-30T08:26:47;12.00;;;4.83;;
4638;SDS011;2332;38.646;-9.154;2022-08-30T08:29:12;13.80;;;5.13;;
4638;SDS011;2332;38.646;-9.154;2022-08-30T08:31:38;4.93;;;4.40;;
4638;SDS011;2332;38.646;-9.154;2022-08-30T08:34:05;9.40;;;4.40;;
4638;SDS011;2332;38.646;-9.154;2022-08-30T08:36:32;8.73;;;4.70;;
4638;SDS011;2332;38.646;-9.154;2022-08-30T08:38:58;5.87;;;4.20;;
4638;SDS011;2332;38.646;-9.154;2022-08-30T08:41:45;4.70;;;4.30;;
4638;SDS011;2332;38.646;-9.154;2022-08-30T08:44:27;8.67;;;4.80;;
4638;SDS011;2332;38.646;-9.154;2022-08-30T08:47:27;6.93;;;4.40;;
4638;SDS011;2332;38.646;-9.154;2022-08-30T08:50:03;14.07;;;4.60;;
4638;SDS011;2332;38.646;-9.154;2022-08-30T08:55:33;4.13;;;3.73;;
4638;SDS011;2332;38.646;-9.154;2022-08-30T08:58:00;8.53;;;4.03;;
4638;SDS011;2332;38.646;-9.154;2022-08-30T09:00:26;11.27;;;4.30;;
4638;SDS011;2332;38.646;-9.154;2022-08-30T09:02:58;12.00;;;4.83;;
4638;SDS011;2332;38.646;-9.154;2022-08-30T09:05:26;5.73;;;4.40;;
4638;SDS011;2332;38.646;-9.154;2022-08-30T09:07:57;7.67;;;3.80;;
4638;SDS011;2332;38.646;-9.154;2022-08-30T09:10:25;7.00;;;3.90;;
4638;SDS011;2332;38.646;-9.154;2022-08-30T09:12:51;12.37;;;4.17;;
4638;SDS011;2332;38.646;-9.154;2022-08-30T09:15:19;9.20;;;4.30;;
4638;SDS011;2332;38.646;-9.154;2022-08-30T09:17:55;7.43;;;4.10;;
4638;SDS011;2332;38.646;-9.154;2022-08-30T09:20:44;7.10;;;3.60;;
4638;SDS011;2332;38.646;-9.154;2022-08-30T09:25:57;6.97;;;4.47;;
4638;SDS011;2332;38.646;-9.154;2022-08-30T09:28:34;9.67;;;3.90;;
4638;SDS011;2332;38.646;-9.154;2022-08-30T09:31:27;5.37;;;4.37;;
4638;SDS011;2332;38.646;-9.154;2022-08-30T09:34:05;7.97;;;4.00;;
4638;SDS011;2332;38.646;-9.154;2022-08-30T09:39:06;4.10;;;3.60;;
4638;SDS011;2332;38.646;-9.154;2022-08-30T09:41:40;9.67;;;3.70;;
4638;SDS011;2332;38.646;-9.154;2022-08-30T09:44:21;12.77;;;3.90;;
4638;SDS011;2332;38.646;-9.154;2022-08-30T09:46:55;4.23;;;3.80;;
4638;SDS011;2332;38.646;-9.154;2022-08-30T09:52:33;6.07;;;3.60;;
4638;SDS011;2332;38.646;-9.154;2022-08-30T10:00:30;4.13;;;2.97;;
4638;SDS011;2332;38.646;-9.154;2022-08-30T10:03:09;10.53;;;3.77;;
4638;SDS011;2332;38.646;-9.154;2022-08-30T10:06:08;7.13;;;4.00;;
4638;SDS011;2332;38.646;-9.154;2022-08-30T10:11:31;7.20;;;3.00;;
4638;SDS011;2332;38.646;-9.154;2022-08-30T10:24:07;9.97;;;2.90;;
4638;SDS011;2332;38.646;-9.154;2022-08-30T10:26:42;7.50;;;3.30;;
4638;SDS011;2332;38.646;-9.154;2022-08-30T10:31:51;8.13;;;3.00;;
4638;SDS011;2332;38.646;-9.154;2022-08-30T10:34:24;6.47;;;2.37;;
4638;SDS011;2332;38.646;-9.154;2022-08-30T10:36:55;4.73;;;2.90;;
4638;SDS011;2332;38.646;-9.154;2022-08-30T10:39:25;9.50;;;3.57;;
4638;SDS011;2332;38.646;-9.154;2022-08-30T10:41:57;9.33;;;2.90;;
4638;SDS011;2332;38.646;-9.154;2022-08-30T10:44:27;3.13;;;2.30;;
4638;SDS011;2332;38.646;-9.154;2022-08-30T10:49:34;9.43;;;2.50;;
4638;SDS011;2332;38.646;-9.154;2022-08-30T10:54:49;4.30;;;2.60;;
4638;SDS011;2332;38.646;-9.154;2022-08-30T10:57:17;5.60;;;2.70;;
4638;SDS011;2332;38.646;-9.154;2022-08-30T11:03:13;4.77;;;2.60;;
4638;SDS011;2332;38.646;-9.154;2022-08-30T11:14:03;5.17;;;2.70;;
4638;SDS011;2332;38.646;-9.154;2022-08-30T11:16:34;4.50;;;2.10;;
4638;SDS011;2332;38.646;-9.154;2022-08-30T11:19:01;6.23;;;2.63;;
4638;SDS011;2332;38.646;-9.154;2022-08-30T11:21:37;6.30;;;3.13;;
4638;SDS011;2332;38.646;-9.154;2022-08-30T11:24:05;5.40;;;3.10;;
4638;SDS011;2332;38.646;-9.154;2022-08-30T11:31:57;4.23;;;3.00;;
4638;SDS011;2332;38.646;-9.154;2022-08-30T11:40:04;6.63;;;3.37;;
4638;SDS011;2332;38.646;-9.154;2022-08-30T11:42:42;4.90;;;2.70;;
4638;SDS011;2332;38.646;-9.154;2022-08-30T11:46:10;7.00;;;2.40;;
4638;SDS011;2332;38.646;-9.154;2022-08-30T11:48:36;2.60;;;2.40;;
4638;SDS011;2332;38.646;-9.154;2022-08-30T11:51:29;3.90;;;2.50;;
4638;SDS011;2332;38.646;-9.154;2022-08-30T11:57:00;9.70;;;3.57;;
4638;SDS011;2332;38.646;-9.154;2022-08-30T12:10:52;2.73;;;2.53;;
4638;SDS011;2332;38.646;-9.154;2022-08-30T12:19:29;4.50;;;2.33;;
4638;SDS011;2332;38.646;-9.154;2022-08-30T12:21:57;9.37;;;2.60;;
4638;SDS011;2332;38.646;-9.154;2022-08-30T12:24:28;5.33;;;3.23;;
4638;SDS011;2332;38.646;-9.154;2022-08-30T12:26:58;5.93;;;2.80;;
4638;SDS011;2332;38.646;-9.154;2022-08-30T12:29:29;4.67;;;2.40;;
4638;SDS011;2332;38.646;-9.154;2022-08-30T12:31:56;5.23;;;2.60;;
4638;SDS011;2332;38.646;-9.154;2022-08-30T12:34:26;6.80;;;2.47;;
4638;SDS011;2332;38.646;-9.154;2022-08-30T12:37:05;6.00;;;2.30;;
4638;SDS011;2332;38.646;-9.154;2022-08-30T12:39:39;4.77;;;2.30;;
4638;SDS011;2332;38.646;-9.154;2022-08-30T12:44:47;20.23;;;3.87;;
4638;SDS011;2332;38.646;-9.154;2022-08-30T12:47:15;3.30;;;2.27;;
4638;SDS011;2332;38.646;-9.154;2022-08-30T12:49:44;4.73;;;2.90;;
4638;SDS011;2332;38.646;-9.154;2022-08-30T12:52:29;3.00;;;2.33;;
4638;SDS011;2332;38.646;-9.154;2022-08-30T12:55:09;3.83;;;2.07;;
4638;SDS011;2332;38.646;-9.154;2022-08-30T12:57:40;5.37;;;2.50;;
4638;SDS011;2332;38.646;-9.154;2022-08-30T13:00:09;6.40;;;3.13;;
4638;SDS011;2332;38.646;-9.154;2022-08-30T13:02:48;5.90;;;2.60;;
4638;SDS011;2332;38.646;-9.154;2022-08-30T13:05:26;4.87;;;2.63;;
4638;SDS011;2332;38.646;-9.154;2022-08-30T13:08:08;4.77;;;2.10;;
4638;SDS011;2332;38.646;-9.154;2022-08-30T13:10:36;3.30;;;2.37;;
4638;SDS011;2332;38.646;-9.154;2022-08-30T13:13:05;6.53;;;2.10;;
4638;SDS011;2332;38.646;-9.154;2022-08-30T13:15:32;10.07;;;2.50;;
4638;SDS011;2332;38.646;-9.154;2022-08-30T13:21:18;4.70;;;2.03;;
4638;SDS011;2332;38.646;-9.154;2022-08-30T13:23:47;8.17;;;3.00;;
4638;SDS011;2332;38.646;-9.154;2022-08-30T13:26:20;5.83;;;2.60;;
4638;SDS011;2332;38.646;-9.154;2022-08-30T13:28:50;6.10;;;1.77;;
4638;SDS011;2332;38.646;-9.154;2022-08-30T13:31:17;7.60;;;2.00;;
4638;SDS011;2332;38.646;-9.154;2022-08-30T13:33:43;1.87;;;1.77;;
4638;SDS011;2332;38.646;-9.154;2022-08-30T13:36:11;2.20;;;1.73;;
4638;SDS011;2332;38.646;-9.154;2022-08-30T13:38:37;8.03;;;2.40;;
4638;SDS011;2332;38.646;-9.154;2022-08-30T13:41:03;7.30;;;2.27;;
4638;SDS011;2332;38.646;-9.154;2022-08-30T13:43:29;3.90;;;2.13;;
4638;SDS011;2332;38.646;-9.154;2022-08-30T13:45:54;6.37;;;2.30;;
4638;SDS011;2332;38.646;-9.154;2022-08-30T13:48:22;5.43;;;1.70;;
4638;SDS011;2332;38.646;-9.154;2022-08-30T13:50:48;5.33;;;2.43;;
4638;SDS011;2332;38.646;-9.154;2022-08-30T13:53:13;7.40;;;2.00;;
4638;SDS011;2332;38.646;-9.154;2022-08-30T13:55:39;4.03;;;1.80;;
4638;SDS011;2332;38.646;-9.154;2022-08-30T13:58:06;4.57;;;2.03;;
4638;SDS011;2332;38.646;-9.154;2022-08-30T14:00:32;6.33;;;2.20;;
4638;SDS011;2332;38.646;-9.154;2022-08-30T14:02:59;4.73;;;2.27;;
4638;SDS011;2332;38.646;-9.154;2022-08-30T14:05:27;5.07;;;1.80;;
4638;SDS011;2332;38.646;-9.154;2022-08-30T14:07:55;3.17;;;1.60;;
4638;SDS011;2332;38.646;-9.154;2022-08-30T14:10:20;2.03;;;1.70;;
4638;SDS011;2332;38.646;-9.154;2022-08-30T14:12:49;4.27;;;2.10;;
4638;SDS011;2332;38.646;-9.154;2022-08-30T14:15:14;4.63;;;1.97;;
4638;SDS011;2332;38.646;-9.154;2022-08-30T14:17:40;5.53;;;2.10;;
4638;SDS011;2332;38.646;-9.154;2022-08-30T14:20:06;3.60;;;1.87;;
4638;SDS011;2332;38.646;-9.154;2022-08-30T14:22:32;6.17;;;2.50;;
4638;SDS011;2332;38.646;-9.154;2022-08-30T14:24:57;15.13;;;2.40;;
4638;SDS011;2332;38.646;-9.154;2022-08-30T14:27:26;4.93;;;2.30;;
4638;SDS011;2332;38.646;-9.154;2022-08-30T14:29:52;6.13;;;2.30;;
4638;SDS011;2332;38.646;-9.154;2022-08-30T14:32:18;2.00;;;1.77;;
4638;SDS011;2332;38.646;-9.154;2022-08-30T14:34:43;9.30;;;2.10;;
4638;SDS011;2332;38.646;-9.154;2022-08-30T14:37:09;11.33;;;2.27;;
4638;SDS011;2332;38.646;-9.154;2022-08-30T14:39:35;9.63;;;2.07;;
4638;SDS011;2332;38.646;-9.154;2022-08-30T14:42:01;5.90;;;2.20;;
4638;SDS011;2332;38.646;-9.154;2022-08-30T14:44:26;5.13;;;1.90;;
4638;SDS011;2332;38.646;-9.154;2022-08-30T14:46:52;2.23;;;2.03;;
4638;SDS011;2332;38.646;-9.154;2022-08-30T14:49:19;4.30;;;2.13;;
4638;SDS011;2332;38.646;-9.154;2022-08-30T14:51:45;7.27;;;1.87;;
4638;SDS011;2332;38.646;-9.154;2022-08-30T14:54:12;7.00;;;2.13;;
4638;SDS011;2332;38.646;-9.154;2022-08-30T14:56:45;7.77;;;2.40;;
4638;SDS011;2332;38.646;-9.154;2022-08-30T14:59:10;4.20;;;2.77;;
4638;SDS011;2332;38.646;-9.154;2022-08-30T15:01:36;7.07;;;2.23;;
4638;SDS011;2332;38.646;-9.154;2022-08-30T15:04:03;5.57;;;1.90;;
4638;SDS011;2332;38.646;-9.154;2022-08-30T15:06:29;3.00;;;1.67;;
4638;SDS011;2332;38.646;-9.154;2022-08-30T15:08:55;7.27;;;2.40;;
4638;SDS011;2332;38.646;-9.154;2022-08-30T15:11:21;7.53;;;2.40;;
4638;SDS011;2332;38.646;-9.154;2022-08-30T15:13:49;6.90;;;2.10;;
4638;SDS011;2332;38.646;-9.154;2022-08-30T15:16:17;9.83;;;2.57;;
4638;SDS011;2332;38.646;-9.154;2022-08-30T15:18:48;2.00;;;1.63;;
4638;SDS011;2332;38.646;-9.154;2022-08-30T15:21:14;2.83;;;2.23;;
4638;SDS011;2332;38.646;-9.154;2022-08-30T15:23:46;12.53;;;2.73;;
4638;SDS011;2332;38.646;-9.154;2022-08-30T15:26:13;5.73;;;1.90;;
4638;SDS011;2332;38.646;-9.154;2022-08-30T15:28:38;2.60;;;2.23;;
4638;SDS011;2332;38.646;-9.154;2022-08-30T15:31:04;5.23;;;1.90;;
4638;SDS011;2332;38.646;-9.154;2022-08-30T15:33:30;6.03;;;2.20;;
4638;SDS011;2332;38.646;-9.154;2022-08-30T15:35:58;8.30;;;2.20;;
4638;SDS011;2332;38.646;-9.154;2022-08-30T15:38:25;5.00;;;2.53;;
4638;SDS011;2332;38.646;-9.154;2022-08-30T15:40:51;5.27;;;1.93;;
4638;SDS011;2332;38.646;-9.154;2022-08-30T15:43:16;8.60;;;2.30;;
4638;SDS011;2332;38.646;-9.154;2022-08-30T15:45:42;7.73;;;2.30;;
4638;SDS011;2332;38.646;-9.154;2022-08-30T15:48:08;6.70;;;2.60;;
4638;SDS011;2332;38.646;-9.154;2022-08-30T15:50:33;8.83;;;2.80;;
4638;SDS011;2332;38.646;-9.154;2022-08-30T15:53:00;5.70;;;2.00;;
4638;SDS011;2332;38.646;-9.154;2022-08-30T15:55:26;6.57;;;2.43;;
4638;SDS011;2332;38.646;-9.154;2022-08-30T15:57:54;5.40;;;2.53;;
4638;SDS011;2332;38.646;-9.154;2022-08-30T16:00:22;2.40;;;1.73;;
4638;SDS011;2332;38.646;-9.154;2022-08-30T16:02:48;7.63;;;2.67;;
4638;SDS011;2332;38.646;-9.154;2022-08-30T16:05:15;5.67;;;2.10;;
4638;SDS011;2332;38.646;-9.154;2022-08-30T16:07:42;7.40;;;2.00;;
4638;SDS011;2332;38.646;-9.154;2022-08-30T16:10:10;5.83;;;1.70;;
4638;SDS011;2332;38.646;-9.154;2022-08-30T16:12:37;8.17;;;2.10;;
4638;SDS011;2332;38.646;-9.154;2022-08-30T16:15:02;4.10;;;2.00;;
4638;SDS011;2332;38.646;-9.154;2022-08-30T16:17:28;11.67;;;2.23;;
4638;SDS011;2332;38.646;-9.154;2022-08-30T16:19:54;3.63;;;2.07;;
4638;SDS011;2332;38.646;-9.154;2022-08-30T16:22:20;5.20;;;2.33;;
4638;SDS011;2332;38.646;-9.154;2022-08-30T16:24:47;5.00;;;2.03;;
4638;SDS011;2332;38.646;-9.154;2022-08-30T16:27:13;8.60;;;2.13;;
4638;SDS011;2332;38.646;-9.154;2022-08-30T16:29:38;7.13;;;2.30;;